METAR Analyzer

一覧表示

Hello, Guest. (Login)

RJGG/NGO  -  名古屋/中部

観測日時
2021-08-05 02:00 (UTC) (36分前)
気温
30
露点
25
湿数
5
相対湿度
74.6%
QNH
1007.1hPa
推定現地気圧
1006.6hPa
推定海面気圧
1007.1hPa
体感温度
25.3
(無風時)
28.7
HI
36.2
気温前日比
+1
体感温度前日比
+0.5
HI前日比
+1.7
水平視程
>10000m
鉛直視程
データなし
雲底高度
No dense clouds
V/I
VMC (VFR)
RVR
No RVR data
卓越風
9kt from 210°
ガスト
No gust
降水
報告なし
その他の天気
報告なし
少しの(1/8) 積雲 @ 2500ft AGL

RJGG 050200Z 21009KT 9999 FEW025 30/25 Q1007 NOSIG RMK 1CU025 A2974

RJNA/NKM  -  名古屋/小牧

観測日時
2021-08-05 02:00 (UTC) (36分前)
気温
34
露点
25
湿数
9
相対湿度
59.5%
QNH
1006.8hPa
推定現地気圧
1005.1hPa
推定海面気圧
1006.7hPa
体感温度
29.4
(無風時)
30.4
HI
42
気温前日比
+2
体感温度前日比
+2
HI前日比
+5.2
水平視程
>10000m
鉛直視程
データなし
雲底高度
No dense clouds
V/I
VMC (VFR)
RVR
No RVR data
卓越風
4kt from VRB
ガスト
No gust
降水
報告なし
その他の天気
報告なし
少しの(1/8) 積雲 @ 2500ft AGL

RJNA 050200Z VRB04KT 9999 FEW025 34/25 Q1006 RMK 1CU025 A2973

RJNS/FSZ  -  静岡

観測日時
2021-08-05 02:00 (UTC) (36分前)
気温
29
露点
24
湿数
5
相対湿度
74.5%
QNH
1008hPa
推定現地気圧
992.3hPa
推定海面気圧
1007.2hPa
体感温度
24.3
(無風時)
27.9
HI
33.6
気温前日比
-2
体感温度前日比
-2
HI前日比
-2.9
水平視程
>10000m
鉛直視程
データなし
雲底高度
No dense clouds
V/I
VMC (VFR)
RVR
No RVR data
卓越風
7kt from 140° (110° ~ 180°)
ガスト
No gust
降水
報告なし
その他の天気
報告なし
少しの雲 @ 2000ft AGL

RJNS 050200Z 14007KT 110V180 9999 FEW020 29/24 Q1008

RJAT  -  滝ヶ原駐屯地

観測日時
2021-08-05 02:00 (UTC) (36分前)
気温
30
露点
21
湿数
9
相対湿度
58.6%
QNH
1012.2hPa
推定現地気圧
1012.2hPa
推定海面気圧
1012.2hPa
体感温度
24.6
(無風時)
27.4
HI
32.6
気温前日比
±0
体感温度前日比
-0.4
HI前日比
±0
水平視程
>10000m
鉛直視程
データなし
雲底高度
No dense clouds
V/I
VMC (VFR)
RVR
No RVR data
卓越風
6kt from 70°
ガスト
No gust
降水
報告なし
その他の天気
報告なし
少しの(1/8) 積雲 @ 1500ft AGL

RJAT 050200Z 07006KT 9999 FEW015 30/21 Q1012 RMK 1CU015 A2989

RJNY  -  静浜基地

観測日時
2021-08-05 02:00 (UTC) (36分前)
気温
29
露点
24
湿数
5
相対湿度
74.5%
QNH
1008.1hPa
推定現地気圧
1007.3hPa
推定海面気圧
1008.1hPa
体感温度
24.8
(無風時)
27.9
HI
33.6
気温前日比
-1
体感温度前日比
-0.5
HI前日比
-1.5
水平視程
>10000m
鉛直視程
データなし
雲底高度
No dense clouds
V/I
VMC (VFR)
RVR
No RVR data
卓越風
5kt from 160° (110° ~ 190°)
ガスト
No gust
降水
報告なし
その他の天気
報告なし
少しの(1/8) 積雲 @ 2000ft AGL

RJNY 050200Z 16005KT 110V190 9999 FEW020 29/24 Q1008 RMK 1CU020 A2977

RJNH  -  浜松基地

観測日時
2021-08-05 02:00 (UTC) (36分前)
気温
31
露点
25
湿数
6
相対湿度
70.5%
QNH
1007.8hPa
推定現地気圧
1002.3hPa
推定海面気圧
1007.5hPa
体感温度
26.7
(無風時)
29.1
HI
37.7
気温前日比
+1
体感温度前日比
+1.3
HI前日比
+3.6
水平視程
>10000m
鉛直視程
データなし
雲底高度
No dense clouds
V/I
VMC (VFR)
RVR
No RVR data
卓越風
6kt from 170° (110° ~ 220°)
ガスト
No gust
降水
報告なし
その他の天気
報告なし
少しの(1/8) 積雲 @ 1500ft AGL / 散在する(3/8) 積雲 @ 2500ft AGL

RJNH 050200Z 17006KT 110V220 9999 FEW015 SCT025 31/25 Q1007 RMK 1CU015 3CU025 A2976

RJNG/QGU  -  岐阜基地

観測日時
2021-08-05 02:00 (UTC) (36分前)
気温
34
露点
25
湿数
9
相対湿度
59.5%
QNH
1006.8hPa
推定現地気圧
1002.1hPa
推定海面気圧
1006.5hPa
体感温度
29.4
(無風時)
30.4
HI
42
気温前日比
+2
体感温度前日比
+2.2
HI前日比
+5.2
水平視程
>10000m
鉛直視程
データなし
雲底高度
No dense clouds
V/I
VMC (VFR)
RVR
No RVR data
卓越風
4kt from VRB
ガスト
No gust
降水
報告なし
その他の天気
報告なし
少しの(1/8) 積雲 @ 2500ft AGL

RJNG 050200Z VRB04KT 9999 FEW025 34/25 Q1006 RMK 1CU025 A2973

RJOE  -  明野駐屯地

観測日時
2021-08-05 02:00 (UTC) (36分前)
気温
31
露点
24
湿数
7
相対湿度
66.4%
QNH
1007.1hPa
推定現地気圧
1006.4hPa
推定海面気圧
1007.1hPa
体感温度
26.3
(無風時)
28.8
HI
36.5
気温前日比
+1
体感温度前日比
+0.6
HI前日比
+1.4
水平視程
>10000m
鉛直視程
データなし
雲底高度
No dense clouds
V/I
VMC (VFR)
RVR
No RVR data
卓越風
6kt from 50° (360° ~ 110°)
ガスト
No gust
降水
報告なし
その他の天気
報告なし
少しの(1/8) 積雲 @ 2000ft AGL

RJOE 050200Z 05006KT 360V110 9999 FEW020 31/24 Q1007 RMK 1CU020 A2974

3.4msec